Zealand Delilah — PBZI — position and weather

sailwx.info

Track history (hours):
 
Tides and Currents Weather Stations Pressure Air Temp Water Temp Dewpoint Dewpoint Depression Visibility Wind Speed Wind Dir Waves Ship Positions

Zealand Delilah

Last reported at 2015-Jan-11 18:33 UTC. Time now 2015-Jan-29 12:20 UTC.
Position N 36°54' W 029°44'.
Warning: this ship's position is 17 days out of date.

Length 134 m; draft 7.1 m.

Type: Ship. MMSI: 245935000.

Date/timePositionNaut miles runAvg speedWind from/ knotsBaromVisibWave heightAir tempDewpointWater temp
2015-Jan-11 18:33N 36°54' W 029°44'14311.8
2015-Jan-11 06:25N 36°44' W 026°46'1011.9
2015-Jan-11 05:34N 36°44' W 026°33'1211.7
2015-Jan-11 04:34N 36°43' W 026°18'1212.0
2015-Jan-11 03:34N 36°43' W 026°04'1211.9
2015-Jan-11 02:34N 36°42' W 025°49'1211.5
2015-Jan-11 01:34N 36°41' W 025°34'1211.8
2015-Jan-11 00:33N 36°40' W 025°20'1211.9
2015-Jan-10 23:34N 36°39' W 025°05'1211.7
2015-Jan-10 22:33N 36°39' W 024°50'1212.1
2015-Jan-10 21:33N 36°38' W 024°35'1211.9
2015-Jan-10 20:34N 36°38' W 024°20'1211.9
2015-Jan-10 19:33N 36°37' W 024°06'1212.1
2015-Jan-10 18:33N 36°36' W 023°51'1211.8
2015-Jan-10 17:32N 36°36' W 023°35'1111.7
2015-Jan-10 16:33N 36°36' W 023°21'1211.7
2015-Jan-10 15:33N 36°35' W 023°07'1211.8
2015-Jan-10 14:33N 36°34' W 022°52'1311.7
2015-Jan-10 13:29N 36°33' W 022°36'1112.3
2015-Jan-10 12:33N 36°32' W 022°22'1512.3
2015-Jan-10 11:19N 36°32' W 022°03'1112.1
2015-Jan-10 10:23N 36°31' W 021°49'  
2015-Jan-07 16:31N 35°59' W 005°31'1111.1
2015-Jan-07 15:33N 36°04' W 005°20'5 5.2
2015-Jan-07 14:33N 36°07' W 005°14'38910.7
2015-Jan-06 02:10N 38°37' E 002°18'711.3
2015-Jan-06 01:33N 38°40' E 002°25'1111.3
2015-Jan-06 00:33N 38°46' E 002°38'1111.1
2015-Jan-05 23:33N 38°52' E 002°50'1111.3
2015-Jan-05 22:33N 38°58' E 003°02'1111.2
2015-Jan-05 21:33N 39°04' E 003°14'1211.9
2015-Jan-05 20:33N 39°10' E 003°27'1212.4
2015-Jan-05 19:33N 39°17' E 003°41'11211.8
2015-Jan-05 10:03N 40°40' E 005°18'16210.4
2015-Jan-04 18:31N 42°44' E 007°37'1411.4
2015-Jan-04 17:17N 42°56' E 007°47'1112.0
2015-Jan-04 16:21N 43°05' E 007°57'1012.1
2015-Jan-04 15:30N 43°13' E 008°05'1212.3
2015-Jan-04 14:34N 43°22' E 008°15'1212.4
2015-Jan-04 13:34N 43°32' E 008°26'1212.3
2015-Jan-04 12:33N 43°42' E 008°36'1212.3
2015-Jan-04 11:33N 43°52' E 008°46'1212.0
2015-Jan-04 10:33N 44°01' E 008°56'1111.5
2015-Jan-04 09:34N 44°13' E 008°58'1110.9
2015-Jan-04 08:33N 44°23' E 008°55'2 2.0
2015-Jan-04 07:33N 44°24' E 008°52'0 0.0
2015-Jan-04 06:33N 44°24' E 008°52'0 0.0
2015-Jan-04 05:33N 44°24' E 008°52'0 0.0
2015-Jan-04 04:33N 44°24' E 008°52'0 0.0
2015-Jan-04 03:33N 44°24' E 008°52'0 0.0
2015-Jan-04 02:33N 44°24' E 008°52'0 0.0
2015-Jan-04 01:33N 44°24' E 008°52'0 0.0
2015-Jan-04 00:33N 44°24' E 008°52'0 0.0
2015-Jan-03 23:33N 44°24' E 008°52'0 0.0
2015-Jan-03 22:33N 44°24' E 008°52'0 0.0
2015-Jan-03 21:33N 44°24' E 008°52'0 0.0
2015-Jan-03 20:33N 44°24' E 008°52'0 0.0
2015-Jan-03 19:33N 44°24' E 008°52'0 0.0
2015-Jan-03 18:33N 44°24' E 008°52'0 0.0
2015-Jan-03 17:33N 44°24' E 008°52'0 0.0
2015-Jan-03 16:33N 44°24' E 008°52'0 0.0
2015-Jan-03 15:27N 44°24' E 008°52'0 0.0
2015-Jan-03 14:33N 44°24' E 008°52'0 0.0
2015-Jan-03 13:33N 44°24' E 008°52'0 0.0
2015-Jan-03 12:33N 44°24' E 008°52'0 0.0
2015-Jan-03 11:33N 44°24' E 008°52'0 0.0
2015-Jan-03 10:33N 44°24' E 008°52'0 0.0
2015-Jan-03 09:33N 44°24' E 008°52'0 0.0
2015-Jan-03 08:33N 44°24' E 008°52'0 0.0
2015-Jan-03 07:33N 44°24' E 008°52'0 0.0
2015-Jan-03 06:33N 44°24' E 008°52'0 0.0
2015-Jan-03 05:33N 44°24' E 008°52'0 0.0
2015-Jan-03 04:33N 44°24' E 008°52'0 0.0
2015-Jan-03 03:33N 44°24' E 008°52'0 0.0
2015-Jan-03 02:33N 44°24' E 008°52'0 0.0
2015-Jan-03 01:33N 44°24' E 008°52'0 0.0
2015-Jan-03 00:33N 44°24' E 008°52'0 0.0
2015-Jan-02 23:33N 44°24' E 008°52'0 0.0
2015-Jan-02 22:33N 44°24' E 008°52'0 0.0
2015-Jan-02 21:33N 44°24' E 008°52'0 0.0
2015-Jan-02 20:27N 44°24' E 008°52'0 0.0
2015-Jan-02 19:33N 44°24' E 008°52'0 0.0
2015-Jan-02 18:33N 44°24' E 008°52'0 0.0
2015-Jan-02 17:33N 44°24' E 008°52'0 0.0
2015-Jan-02 16:33N 44°24' E 008°52'0 0.0
2015-Jan-02 15:33N 44°24' E 008°52'0 0.0
2015-Jan-02 14:33N 44°24' E 008°52'0 0.0
2015-Jan-02 13:33N 44°24' E 008°52'0 0.0
2015-Jan-02 12:33N 44°24' E 008°52'0 0.0
2015-Jan-02 11:33N 44°24' E 008°52'0 0.0
2015-Jan-02 10:33N 44°24' E 008°52'0 0.0
2015-Jan-02 09:33N 44°24' E 008°52'0 0.0
2015-Jan-02 08:33N 44°24' E 008°52'0 0.0
2015-Jan-02 07:33N 44°24' E 008°52'0 0.0
2015-Jan-02 06:33N 44°24' E 008°52'0 0.0
2015-Jan-02 05:33N 44°24' E 008°52'0 0.0
2015-Jan-02 04:33N 44°24' E 008°52'0 0.0
2015-Jan-02 03:33N 44°24' E 008°52'0 0.0
2015-Jan-02 02:33N 44°24' E 008°52'0 0.0
2015-Jan-02 01:33N 44°24' E 008°52'0 0.0
2015-Jan-02 00:33N 44°24' E 008°52'0 0.0
2015-Jan-01 23:33N 44°24' E 008°52'0 0.0
2015-Jan-01 22:33N 44°24' E 008°52'0 0.0
2015-Jan-01 21:33N 44°24' E 008°52'0 0.0
2015-Jan-01 20:33N 44°24' E 008°52'0 0.0
2015-Jan-01 19:33N 44°24' E 008°52'0 0.0
2015-Jan-01 18:33N 44°24' E 008°52'  
Track history (hours):
 
Tides and Currents Weather Stations Pressure Air Temp Water Temp Dewpoint Dewpoint Depression Visibility Wind Speed Wind Dir Waves Ship Positions

Zealand Delilah

Last reported at 2015-Jan-11 18:33 UTC. Time now 2015-Jan-29 12:20 UTC.
Position N 36°54' W 029°44'.
Warning: this ship's position is 17 days out of date.

Length 134 m; draft 7.1 m.

Type: Ship. MMSI: 245935000.

Date/timePositionNaut miles runAvg speedWind from/ knotsBaromVisibWave heightAir tempDewpointWater temp
2015-Jan-11 18:33N 36°54' W 029°44'14311.8
2015-Jan-11 06:25N 36°44' W 026°46'1011.9
2015-Jan-11 05:34N 36°44' W 026°33'1211.7
2015-Jan-11 04:34N 36°43' W 026°18'1212.0
2015-Jan-11 03:34N 36°43' W 026°04'1211.9
2015-Jan-11 02:34N 36°42' W 025°49'1211.5
2015-Jan-11 01:34N 36°41' W 025°34'1211.8
2015-Jan-11 00:33N 36°40' W 025°20'1211.9
2015-Jan-10 23:34N 36°39' W 025°05'1211.7
2015-Jan-10 22:33N 36°39' W 024°50'1212.1
2015-Jan-10 21:33N 36°38' W 024°35'1211.9
2015-Jan-10 20:34N 36°38' W 024°20'1211.9
2015-Jan-10 19:33N 36°37' W 024°06'1212.1
2015-Jan-10 18:33N 36°36' W 023°51'1211.8
2015-Jan-10 17:32N 36°36' W 023°35'1111.7
2015-Jan-10 16:33N 36°36' W 023°21'1211.7
2015-Jan-10 15:33N 36°35' W 023°07'1211.8
2015-Jan-10 14:33N 36°34' W 022°52'1311.7
2015-Jan-10 13:29N 36°33' W 022°36'1112.3
2015-Jan-10 12:33N 36°32' W 022°22'1512.3
2015-Jan-10 11:19N 36°32' W 022°03'1112.1
2015-Jan-10 10:23N 36°31' W 021°49'  
2015-Jan-07 16:31N 35°59' W 005°31'1111.1
2015-Jan-07 15:33N 36°04' W 005°20'5 5.2
2015-Jan-07 14:33N 36°07' W 005°14'38910.7
2015-Jan-06 02:10N 38°37' E 002°18'711.3
2015-Jan-06 01:33N 38°40' E 002°25'1111.3
2015-Jan-06 00:33N 38°46' E 002°38'1111.1
2015-Jan-05 23:33N 38°52' E 002°50'1111.3
2015-Jan-05 22:33N 38°58' E 003°02'1111.2
2015-Jan-05 21:33N 39°04' E 003°14'1211.9
2015-Jan-05 20:33N 39°10' E 003°27'1212.4
2015-Jan-05 19:33N 39°17' E 003°41'11211.8
2015-Jan-05 10:03N 40°40' E 005°18'16210.4
2015-Jan-04 18:31N 42°44' E 007°37'1411.4
2015-Jan-04 17:17N 42°56' E 007°47'1112.0
2015-Jan-04 16:21N 43°05' E 007°57'1012.1
2015-Jan-04 15:30N 43°13' E 008°05'1212.3
2015-Jan-04 14:34N 43°22' E 008°15'1212.4
2015-Jan-04 13:34N 43°32' E 008°26'1212.3
2015-Jan-04 12:33N 43°42' E 008°36'1212.3
2015-Jan-04 11:33N 43°52' E 008°46'1212.0
2015-Jan-04 10:33N 44°01' E 008°56'1111.5
2015-Jan-04 09:34N 44°13' E 008°58'1110.9
2015-Jan-04 08:33N 44°23' E 008°55'2 2.0
2015-Jan-04 07:33N 44°24' E 008°52'0 0.0
2015-Jan-04 06:33N 44°24' E 008°52'0 0.0
2015-Jan-04 05:33N 44°24' E 008°52'0 0.0
2015-Jan-04 04:33N 44°24' E 008°52'0 0.0
2015-Jan-04 03:33N 44°24' E 008°52'0 0.0
2015-Jan-04 02:33N 44°24' E 008°52'0 0.0
2015-Jan-04 01:33N 44°24' E 008°52'0 0.0
2015-Jan-04 00:33N 44°24' E 008°52'0 0.0
2015-Jan-03 23:33N 44°24' E 008°52'0 0.0
2015-Jan-03 22:33N 44°24' E 008°52'0 0.0
2015-Jan-03 21:33N 44°24' E 008°52'0 0.0
2015-Jan-03 20:33N 44°24' E 008°52'0 0.0
2015-Jan-03 19:33N 44°24' E 008°52'0 0.0
2015-Jan-03 18:33N 44°24' E 008°52'0 0.0
2015-Jan-03 17:33N 44°24' E 008°52'0 0.0
2015-Jan-03 16:33N 44°24' E 008°52'0 0.0
2015-Jan-03 15:27N 44°24' E 008°52'0 0.0
2015-Jan-03 14:33N 44°24' E 008°52'0 0.0
2015-Jan-03 13:33N 44°24' E 008°52'0 0.0
2015-Jan-03 12:33N 44°24' E 008°52'0 0.0
2015-Jan-03 11:33N 44°24' E 008°52'0 0.0
2015-Jan-03 10:33N 44°24' E 008°52'0 0.0
2015-Jan-03 09:33N 44°24' E 008°52'0 0.0
2015-Jan-03 08:33N 44°24' E 008°52'0 0.0
2015-Jan-03 07:33N 44°24' E 008°52'0 0.0
2015-Jan-03 06:33N 44°24' E 008°52'0 0.0
2015-Jan-03 05:33N 44°24' E 008°52'0 0.0
2015-Jan-03 04:33N 44°24' E 008°52'0 0.0
2015-Jan-03 03:33N 44°24' E 008°52'0 0.0
2015-Jan-03 02:33N 44°24' E 008°52'0 0.0
2015-Jan-03 01:33N 44°24' E 008°52'0 0.0
2015-Jan-03 00:33N 44°24' E 008°52'0 0.0
2015-Jan-02 23:33N 44°24' E 008°52'0 0.0
2015-Jan-02 22:33N 44°24' E 008°52'0 0.0
2015-Jan-02 21:33N 44°24' E 008°52'0 0.0
2015-Jan-02 20:27N 44°24' E 008°52'0 0.0
2015-Jan-02 19:33N 44°24' E 008°52'0 0.0
2015-Jan-02 18:33N 44°24' E 008°52'0 0.0
2015-Jan-02 17:33N 44°24' E 008°52'0 0.0
2015-Jan-02 16:33N 44°24' E 008°52'0 0.0
2015-Jan-02 15:33N 44°24' E 008°52'0 0.0
2015-Jan-02 14:33N 44°24' E 008°52'0 0.0
2015-Jan-02 13:33N 44°24' E 008°52'0 0.0
2015-Jan-02 12:33N 44°24' E 008°52'0 0.0
2015-Jan-02 11:33N 44°24' E 008°52'0 0.0
2015-Jan-02 10:33N 44°24' E 008°52'0 0.0
2015-Jan-02 09:33N 44°24' E 008°52'0 0.0
2015-Jan-02 08:33N 44°24' E 008°52'0 0.0
2015-Jan-02 07:33N 44°24' E 008°52'0 0.0
2015-Jan-02 06:33N 44°24' E 008°52'0 0.0
2015-Jan-02 05:33N 44°24' E 008°52'0 0.0
2015-Jan-02 04:33N 44°24' E 008°52'0 0.0
2015-Jan-02 03:33N 44°24' E 008°52'0 0.0
2015-Jan-02 02:33N 44°24' E 008°52'0 0.0
2015-Jan-02 01:33N 44°24' E 008°52'0 0.0
2015-Jan-02 00:33N 44°24' E 008°52'0 0.0
2015-Jan-01 23:33N 44°24' E 008°52'0 0.0
2015-Jan-01 22:33N 44°24' E 008°52'0 0.0
2015-Jan-01 21:33N 44°24' E 008°52'0 0.0
2015-Jan-01 20:33N 44°24' E 008°52'0 0.0
2015-Jan-01 19:33N 44°24' E 008°52'0 0.0
2015-Jan-01 18:33N 44°24' E 008°52'  

Dump ship's entire track history